Terminal Aerodrome Forecast
Issued by NWS

Home | Current Version | Previous Version | Text Only | Print | Product List | Glossary On
Versions: 1 2 3 4 5 6 7 8 9 10 11 12 13 14 15 16 17 18 19 20 21 22 23 24
000
FTUS42 KTBW 201729
TAFRSW
TAF
KRSW 201729Z 2018/2118 08014G24KT P6SM SCT040 BKN080
     FM210300 06008KT P6SM SKC
     FM211500 07010G20KT P6SM SCT050 SCT250=

USA.gov is the U.S. government's official web portal to all federal, state and local government web resources and services.